Latest Weather Observations for Toowoomba

IDQ60801

Issued at 10:02 am EST Sunday 1 February 2015 (issued every 30 minutes, with the page automatically refreshed every 10 minutes)

About weather observations | Map of weather stations | Latest weather observations for QLD | Other Formats
Station Details ID: 041529 Name: TOOWOOMBA AIRPORT Lat: -27.54 Lon: 151.91 Height: 640.9 m
Data from the previous 72 hours. | See also: Recent months at Toowoomba
Date/Time
EST
Temp
°C
App
Temp
°C
Dew
Point
Rel
Hum
%
Delta-T
°C
Wind Press
QNH
hPa
Press
MSL
hPa
Rain
since 9 am
mm
Dir
 
Spd
km/h
Gust
km/h
Spd
kts
Gust
kts
01/10:00am 26.6 22.6 5.0 25 11.4 NW 15 20 8 11 1011.7 1008.1 0.0
01/09:30am 26.1 23.7 5.1 26 11.0 WSW 7 19 4 10 1011.7 1008.0 0.0
01/09:00am 25.3 23.8 10.4 39 8.5 WNW 9 13 5 7 1011.7 1008.0 0.0
01/08:30am 24.5 22.4 6.7 32 9.5 NW 7 9 4 5 1011.5 1007.8 0.0
01/08:00am 23.3 22.6 11.4 47 6.9 WNW 6 9 3 5 1011.4 1007.7 0.0
01/07:30am 22.4 21.5 11.5 50 6.3 W 7 7 4 4 1011.3 1007.6 0.0
01/07:00am 21.2 23.1 15.7 71 3.4 CALM 0 0 0 0 1011.0 1007.3 0.0
01/06:30am 18.5 20.6 16.3 87 1.4 CALM 0 0 0 0 1010.6 1006.8 0.0
01/06:00am 17.5 18.3 12.4 72 2.9 CALM 0 0 0 0 1010.4 1006.6 0.0
01/05:30am 16.6 17.6 13.1 80 2.0 CALM 0 0 0 0 1010.0 1006.3 0.0
01/05:00am 15.4 15.6 13.2 87 1.3 NE 4 7 2 4 1009.8 1006.1 0.0
01/04:30am 17.6 17.2 14.1 80 2.1 N 9 11 5 6 1009.6 1005.9 0.0
01/04:00am 16.9 17.0 14.0 83 1.7 N 6 9 3 5 1009.5 1005.8 0.0
01/03:30am 16.7 18.7 15.9 95 0.5 CALM 0 0 0 0 1009.3 1005.5 0.0
01/03:00am 17.1 18.2 16.5 96 0.4 ENE 6 7 3 4 1009.3 1005.5 0.0
01/02:30am 16.9 17.1 15.8 93 0.7 ENE 9 11 5 6 1009.5 1005.8 0.0
01/02:00am 17.6 18.2 16.8 95 0.5 E 9 13 5 7 1009.6 1005.9 0.0
01/01:30am 17.4 17.6 16.8 96 0.4 ENE 11 13 6 7 1009.8 1006.1 0.0
01/01:00am 17.5 17.1 16.2 92 0.8 E 13 15 7 8 1009.9 1006.2 0.0
01/12:30am 17.2 16.9 15.5 90 1.0 E 11 13 6 7 1010.3 1006.5 0.0
01/12:00am 17.5 16.8 15.3 87 1.3 E 13 15 7 8 1010.7 1006.9 0.0
 
Date/Time
EST
Temp
°C
App
Temp
°C
Dew
Point
Rel
Hum
%
Delta-T
°C
Wind Press
QNH
hPa
Press
MSL
hPa
Rain
since 9 am
mm
Dir
 
Spd
km/h
Gust
km/h
Spd
kts
Gust
kts
31/11:30pm 17.7 16.8 14.8 83 1.7 E 13 15 7 8 1010.9 1007.1 0.0
31/11:00pm 18.7 17.6 14.4 76 2.6 ESE 13 13 7 7 1011.1 1007.4 0.0
31/10:30pm 18.3 16.9 12.3 68 3.4 ESE 11 13 6 7 1011.2 1007.5 0.0
31/10:00pm 20.1 18.7 12.1 60 4.6 ESE 11 13 6 7 1011.3 1007.6 0.0
31/09:30pm 20.4 18.6 12.1 59 4.8 E 13 17 7 9 1011.2 1007.5 0.0
31/09:00pm 22.9 20.5 7.0 36 8.5 SSE 9 13 5 7 1011.1 1007.4 0.0
31/08:30pm 23.3 20.9 7.0 35 8.7 S 9 11 5 6 1010.8 1007.0 0.0
31/08:00pm 23.3 20.6 7.4 36 8.6 SW 11 13 6 7 1010.5 1006.7 0.0
31/07:30pm 23.7 21.1 7.8 36 8.6 WSW 11 13 6 7 1010.0 1006.3 0.0
31/07:00pm 25.1 21.7 7.7 33 9.5 SW 15 19 8 10 1009.6 1005.9 0.0
31/06:30pm 26.9 23.4 7.4 29 10.7 WSW 15 20 8 11 1009.0 1005.2 0.0
31/06:00pm 28.3 23.2 7.5 27 11.5 WSW 24 30 13 16 1008.3 1004.6 0.0
31/05:30pm 28.7 27.2 13.0 38 9.5 W 13 20 7 11 1007.8 1004.0 0.0
31/05:00pm 28.5 26.9 14.0 41 8.9 WNW 15 22 8 12 1007.6 1003.8 0.0
31/04:30pm 27.7 26.1 14.0 43 8.4 NNW 15 22 8 12 1007.7 1003.9 0.0
31/04:00pm 27.8 26.0 14.4 43 8.3 W 17 24 9 13 1008.1 1004.4 0.0
31/03:30pm 26.0 23.8 14.5 49 7.1 SW 19 28 10 15 1008.3 1004.6 0.0
31/03:00pm 28.1 24.5 12.0 36 9.6 W 22 32 12 17 1008.4 1004.7 0.0
31/02:30pm 27.3 24.5 13.3 42 8.5 NW 20 28 11 15 1008.7 1004.9 0.0
31/02:00pm 23.2 17.6 12.2 50 6.4 WNW 33 44 18 24 1009.4 1005.6 0.0
31/01:42pm 25.7 21.2 12.5 44 7.8 WNW 28 50 15 27 1009.3 1005.5 0.0
31/01:30pm 27.7 23.4 10.9 35 9.8 WNW 24 35 13 19 1009.1 1005.3 0.0
31/01:00pm 28.9 25.6 12.8 37 9.8 NW 22 33 12 18 1009.4 1005.6 0.0
31/12:30pm 28.9 25.6 15.1 43 8.6 WNW 26 35 14 19 1010.0 1006.3 0.0
31/12:00pm 27.9 24.9 14.9 45 8.1 NW 24 39 13 21 1010.4 1006.6 0.0
31/11:30am 27.5 23.9 14.2 44 8.2 WNW 26 39 14 21 1010.8 1007.0 0.0
31/11:00am 27.8 25.4 15.5 47 7.7 NW 22 35 12 19 1011.2 1007.5 0.0
31/10:30am 26.4 24.0 16.3 53 6.4 NW 24 37 13 20 1011.6 1007.9 0.0
31/10:00am 25.2 23.6 17.4 62 5.0 NW 22 35 12 19 1011.8 1008.1 0.0
31/09:30am 24.0 23.0 18.0 69 3.9 NW 20 28 11 15 1012.1 1008.3 0.0
31/09:00am 23.5 23.0 18.6 74 3.2 NW 19 24 10 13 1012.2 1008.4 0.0
31/08:30am 22.0 20.6 18.0 78 2.6 WNW 22 32 12 17 1012.2 1008.4 0.0
31/08:00am 21.1 19.8 17.3 79 2.4 WNW 20 32 11 17 1012.4 1008.7 0.0
31/07:30am 20.2 19.6 16.6 80 2.2 WNW 15 20 8 11 1012.3 1008.5 0.0
31/07:00am 19.7 19.8 16.5 82 2.0 NW 11 15 6 8 1012.1 1008.3 0.0
31/06:30am 19.7 19.5 15.6 77 2.5 NNE 11 15 6 8 1011.5 1007.8 0.0
31/06:00am 18.6 18.4 15.8 84 1.7 NNE 11 15 6 8 1010.9 1007.1 0.0
31/05:30am 18.1 17.9 15.7 86 1.5 NNE 11 15 6 8 1010.6 1006.8 0.0
31/05:00am 18.0 17.5 16.0 88 1.2 N 13 17 7 9 1010.1 1006.4 0.0
31/04:30am 18.2 17.7 16.0 87 1.3 N 13 17 7 9 1010.1 1006.4 0.0
31/04:00am 17.1 17.2 15.6 91 0.9 ENE 9 11 5 6 1009.9 1006.2 0.0
31/03:30am 18.4 18.5 16.4 88 1.2 N 11 17 6 9 1009.8 1006.1 0.0
31/03:00am 18.3 17.7 16.6 90 1.1 N 15 20 8 11 1009.8 1006.1 0.0
31/02:30am 18.5 18.3 16.8 90 1.1 NNE 13 20 7 11 1009.7 1006.0 0.0
31/02:00am 17.7 18.0 16.0 90 1.0 ENE 9 13 5 7 1009.7 1006.0 0.0
31/01:30am 18.5 18.9 16.3 87 1.4 NE 9 17 5 9 1009.9 1006.2 0.0
31/01:00am 19.1 18.9 16.7 86 1.5 NE 13 19 7 10 1010.1 1006.4 0.0
31/12:30am 19.5 18.5 16.7 84 1.7 NNE 17 20 9 11 1010.7 1006.9 0.0
31/12:00am 19.7 19.0 16.5 82 2.0 NNE 15 20 8 11 1010.9 1007.1 0.0
 
Date/Time
EST
Temp
°C
App
Temp
°C
Dew
Point
Rel
Hum
%
Delta-T
°C
Wind Press
QNH
hPa
Press
MSL
hPa
Rain
since 9 am
mm
Dir
 
Spd
km/h
Gust
km/h
Spd
kts
Gust
kts
30/11:30pm 20.0 18.6 16.6 81 2.1 N 19 28 10 15 1011.2 1007.5 0.0
30/11:00pm 20.3 19.1 16.1 77 2.6 N 17 24 9 13 1011.2 1007.5 0.0
30/10:30pm 20.9 19.6 14.8 68 3.7 N 15 20 8 11 1011.2 1007.5 0.0
30/10:00pm 21.0 19.5 11.9 56 5.2 N 11 15 6 8 1011.4 1007.7 0.0
30/09:30pm 22.0 20.8 11.7 52 5.9 N 9 11 5 6 1011.3 1007.6 0.0
30/09:00pm 22.0 20.8 11.7 52 5.9 N 9 9 5 5 1011.1 1007.4 0.0
30/08:30pm 22.2 21.4 11.6 51 6.1 N 7 9 4 5 1011.0 1007.3 0.0
30/08:00pm 22.6 23.2 12.0 51 6.2 CALM 0 0 0 0 1010.8 1007.0 0.0
30/07:30pm 23.0 22.1 11.4 48 6.7 WNW 7 11 4 6 1010.8 1007.0 0.0
30/07:00pm 23.5 22.8 11.9 48 6.8 WNW 7 9 4 5 1010.6 1006.8 0.0
30/06:30pm 24.4 22.9 12.0 46 7.3 WSW 11 13 6 7 1010.3 1006.5 0.0
30/06:00pm 25.4 24.1 12.6 45 7.6 SW 11 17 6 9 1010.0 1006.3 0.0
30/05:30pm 26.2 24.8 12.3 42 8.2 WSW 11 17 6 9 1009.7 1006.0 0.0
30/05:00pm 25.1 22.5 12.0 44 7.7 W 17 26 9 14 1009.6 1005.9 0.0
30/04:30pm 25.7 23.8 11.8 42 8.2 SW 13 22 7 12 1009.5 1005.8 0.0
30/04:00pm 25.5 23.3 12.0 43 8.0 WSW 15 28 8 15 1009.7 1006.0 0.0
30/03:30pm 26.8 23.8 10.5 36 9.4 W 17 30 9 16 1009.8 1006.1 0.0
30/03:00pm 26.1 24.6 11.8 41 8.4 W 11 19 6 10 1010.0 1006.3 0.0
30/02:30pm 26.7 26.1 13.4 43 8.0 SW 9 19 5 10 1010.4 1006.6 0.0
30/02:00pm 25.9 24.5 9.7 36 9.2 WSW 7 20 4 11 1010.6 1006.8 0.0
30/01:30pm 26.3 23.8 10.9 38 8.9 WSW 15 24 8 13 1010.9 1007.1 0.0
30/01:00pm 24.1 21.9 10.7 43 7.7 W 13 22 7 12 1011.4 1007.7 0.0
30/12:30pm 24.4 23.3 10.7 42 7.9 S 7 15 4 8 1011.7 1008.0 0.0
30/12:00pm 23.3 23.7 15.4 61 4.9 S 7 15 4 8 1012.2 1008.4 0.0
30/11:30am 24.1 23.1 12.4 48 6.9 W 9 15 5 8 1012.4 1008.7 0.0
30/11:00am 22.4 23.8 15.5 65 4.2 S 2 7 1 4 1012.7 1009.0 0.0
30/10:30am 21.7 21.4 14.4 63 4.4 NNE 9 20 5 11 1013.1 1009.4 0.0
30/10:00am 21.1 21.2 15.6 71 3.4 E 9 13 5 7 1013.2 1009.5 0.0
30/09:30am 21.1 21.0 15.9 72 3.2 ENE 11 19 6 10 1013.3 1009.6 0.0
30/09:00am 20.9 20.2 16.3 75 2.9 ENE 15 20 8 11 1013.1 1009.4 0.0
30/08:30am 20.0 19.1 15.8 77 2.6 ENE 15 20 8 11 1013.1 1009.4 0.0
30/08:00am 19.1 17.1 15.6 80 2.1 ENE 20 26 11 14 1013.2 1009.5 0.0
30/07:30am 18.7 16.7 15.6 82 1.9 E 20 26 11 14 1013.0 1009.3 0.0
30/07:00am 17.8 15.9 15.2 85 1.6 ENE 19 26 10 14 1013.0 1009.3 0.0
30/06:30am 17.2 15.4 15.4 89 1.1 E 19 24 10 13 1012.7 1009.0 0.0
30/06:00am 16.4 14.5 15.3 93 0.7 E 19 24 10 13 1012.5 1008.8 0.0
30/05:30am 16.2 14.1 15.2 94 0.6 E 20 26 11 14 1012.2 1008.4 0.0
30/05:00am 16.3 14.2 15.3 94 0.6 E 20 26 11 14 1012.0 1008.2 0.0
30/04:30am 16.4 14.0 15.3 93 0.7 E 22 30 12 16 1011.8 1008.1 0.0
30/04:00am 16.6 13.8 15.3 92 0.8 E 24 30 13 16 1011.7 1008.0 0.0
30/03:30am 16.7 14.4 15.6 93 0.7 E 22 30 12 16 1011.7 1008.0 0.0
30/03:00am 16.7 14.7 15.4 92 0.8 E 20 26 11 14 1011.8 1008.1 0.0
30/02:30am 16.8 14.7 15.3 91 0.9 E 20 28 11 15 1012.0 1008.2 0.0
30/02:00am 17.0 15.0 15.5 91 0.9 E 20 28 11 15 1012.1 1008.3 0.0
30/01:30am 17.1 14.3 15.4 90 1.0 E 24 30 13 16 1012.4 1008.7 0.0
30/01:00am 17.1 14.5 15.8 92 0.8 E 24 30 13 16 1012.5 1008.8 0.0
30/12:30am 17.3 14.9 15.5 89 1.1 E 22 28 12 15 1012.6 1008.9 0.0
30/12:00am 17.4 15.1 15.6 89 1.1 E 22 30 12 16 1012.7 1009.0 0.0
 
Date/Time
EST
Temp
°C
App
Temp
°C
Dew
Point
Rel
Hum
%
Delta-T
°C
Wind Press
QNH
hPa
Press
MSL
hPa
Rain
since 9 am
mm
Dir
 
Spd
km/h
Gust
km/h
Spd
kts
Gust
kts
29/11:42pm 17.5 15.3 16.0 91 0.9 E 22 28 12 15 1012.9 1009.2 0.0
29/11:30pm 17.4 14.8 15.9 91 0.9 E 24 32 13 17 1013.0 1009.3 0.0
29/11:00pm 17.7 14.9 16.4 92 0.8 E 26 33 14 18 1013.1 1009.4 0.0
29/10:30pm 17.8 15.1 16.5 92 0.8 E 26 35 14 19 1013.3 1009.6 0.0
29/10:27pm 17.8 15.1 16.5 92 0.8 E 26 35 14 19 1013.4 1009.7 0.0
29/10:00pm 18.1 15.9 16.8 92 0.8 E 24 28 13 15 1013.4 1009.7 0.0
29/09:30pm 18.6 17.0 16.6 88 1.2 E 20 28 11 15 1013.2 1009.5 0.0
29/09:00pm 19.2 17.3 16.6 85 1.6 E 22 28 12 15 1013.0 1009.3 0.0
29/08:30pm 19.5 17.8 16.3 82 2.0 ESE 20 26 11 14 1012.7 1009.0 0.0
29/08:00pm 20.6 19.1 16.2 76 2.7 ESE 19 28 10 15 1012.4 1008.7 0.0
29/07:30pm 21.8 21.4 15.2 66 4.0 E 11 13 6 7 1012.0 1008.2 0.0
29/07:00pm 22.3 22.3 15.2 64 4.3 E 9 13 5 7 1011.6 1007.9 0.0
29/06:30pm 23.1 22.9 14.7 59 5.1 SE 9 13 5 7 1011.4 1007.7 0.0
29/06:00pm 24.3 21.8 12.3 47 7.1 SW 17 24 9 13 1010.9 1007.1 0.0
29/05:30pm 25.1 24.6 12.7 46 7.4 SW 7 17 4 9 1010.5 1006.7 0.0
29/05:00pm 24.1 22.0 12.4 48 6.9 SW 15 24 8 13 1010.3 1006.5 0.0
29/04:30pm 25.5 24.5 12.4 44 7.8 SW 9 15 5 8 1010.0 1006.3 0.0
29/04:00pm 25.7 23.6 12.5 44 7.9 SW 15 20 8 11 1010.0 1006.3 0.0
29/03:30pm 25.6 23.9 13.5 47 7.3 SSW 15 22 8 12 1010.1 1006.4 0.0
29/03:00pm 24.3 22.8 13.2 50 6.6 SW 13 19 7 10 1010.3 1006.5 0.0
29/02:30pm 24.3 22.7 13.8 52 6.3 SSW 15 22 8 12 1010.5 1006.7 0.0
29/02:00pm 24.5 22.5 12.8 48 7.0 S 15 24 8 13 1010.6 1006.8 0.0
29/01:30pm 24.9 23.2 12.5 46 7.3 WSW 13 22 7 12 1010.8 1007.0 0.0
29/01:00pm 24.9 23.3 15.0 54 6.1 SW 17 22 9 12 1011.1 1007.4 0.0
29/12:30pm 23.6 22.6 13.5 53 6.0 SSW 11 20 6 11 1011.4 1007.7 0.0
29/12:00pm 22.8 22.5 15.4 63 4.6 E 11 17 6 9 1011.6 1007.9 0.0
29/11:30am 22.6 23.1 15.0 62 4.6 E 6 13 3 7 1012.0 1008.2 0.0
29/11:00am 22.4 22.1 14.3 60 4.9 ESE 9 15 5 8 1012.3 1008.5 0.0
29/10:30am 22.3 21.3 14.7 62 4.6 E 13 19 7 10 1012.6 1008.9 0.0

Other Formats:

Comma delimited format used in spreadsheet applications
http://www.bom.gov.au/fwo/IDQ60801/IDQ60801.95551.axf

JavaScript Object Notation format (JSON) in row-major order
http://www.bom.gov.au/fwo/IDQ60801/IDQ60801.95551.json